createdAt,value
2023-05-09T00:07:21.810Z,1.4
2023-05-09T00:12:21.637Z,1.1
2023-05-09T00:17:21.409Z,1.0
2023-05-09T00:22:21.169Z,1.4
2023-05-09T00:27:21.005Z,1.9
2023-05-09T00:32:20.749Z,1.5
2023-05-09T00:37:20.650Z,1.7
2023-05-09T00:47:22.396Z,2.3
2023-05-09T00:52:19.973Z,2.1
2023-05-09T00:57:19.709Z,2.0
2023-05-09T01:07:19.267Z,2.2
2023-05-09T01:12:19.041Z,1.7
2023-05-09T01:17:18.840Z,2.3
2023-05-09T01:27:18.389Z,2.2
2023-05-09T01:32:18.212Z,2.4
2023-05-09T01:37:17.958Z,2.3
2023-05-09T01:42:17.717Z,2.4
2023-05-09T01:47:17.575Z,2.3
2023-05-09T01:52:17.305Z,2.0
2023-05-09T01:57:17.121Z,2.4
2023-05-09T02:02:16.935Z,2.3
2023-05-09T02:12:16.441Z,2.0
2023-05-09T02:17:18.594Z,1.9
2023-05-09T02:22:15.873Z,1.5
2023-05-09T02:27:15.522Z,1.6
2023-05-09T02:32:15.489Z,1.0
2023-05-09T02:37:15.148Z,1.4
2023-05-09T02:47:14.931Z,1.2
2023-05-09T03:02:13.953Z,1.4
2023-05-09T03:12:13.458Z,1.0
2023-05-09T03:17:13.124Z,1.1
2023-05-09T03:27:12.632Z,0.8
2023-05-09T03:32:13.960Z,1.3
2023-05-09T03:42:11.901Z,1.5
2023-05-09T03:47:11.554Z,1.3
2023-05-09T03:52:11.233Z,1.1
2023-05-09T03:57:10.991Z,1.9
2023-05-09T04:02:10.766Z,1.3
2023-05-09T04:07:10.427Z,1.4
2023-05-09T04:12:10.186Z,1.8
2023-05-09T04:17:12.090Z,1.2
2023-05-09T04:22:09.745Z,1.4
2023-05-09T04:37:08.871Z,1.3
2023-05-09T04:47:08.354Z,1.5
2023-05-09T04:52:08.216Z,1.1
2023-05-09T04:57:17.109Z,1.4
2023-05-09T05:07:07.234Z,1.6
2023-05-09T05:12:09.142Z,1.5
2023-05-09T05:17:06.986Z,1.4
2023-05-09T05:22:06.585Z,1.8
2023-05-09T05:27:06.305Z,1.9
2023-05-09T05:32:06.053Z,1.3
2023-05-09T05:37:05.821Z,1.6
2023-05-09T05:42:05.642Z,1.4
2023-05-09T05:47:05.351Z,1.7
2023-05-09T05:52:05.074Z,2.1
2023-05-09T05:57:04.856Z,2.0
2023-05-09T06:02:04.679Z,1.8
2023-05-09T06:07:04.452Z,1.3
2023-05-09T06:12:04.166Z,2.2
2023-05-09T06:17:03.990Z,2.4
2023-05-09T06:22:03.720Z,2.1
2023-05-09T06:27:03.536Z,2.3
2023-05-09T06:32:03.261Z,1.7
2023-05-09T06:37:03.089Z,1.8
2023-05-09T06:42:02.837Z,1.6
2023-05-09T06:47:02.750Z,2.3
2023-05-09T06:52:02.533Z,2.0
2023-05-09T06:57:02.534Z,2.4
2023-05-09T07:02:02.277Z,2.2
2023-05-09T07:07:01.962Z,2.3
2023-05-09T07:12:01.803Z,3.3
2023-05-09T07:17:17.960Z,3.5
2023-05-09T07:22:01.347Z,3.2
2023-05-09T07:27:01.192Z,3.3
2023-05-09T07:32:01.042Z,3.8
2023-05-09T07:37:00.825Z,3.5
2023-05-09T07:42:02.729Z,2.4
2023-05-09T07:47:02.390Z,2.5
2023-05-09T07:52:00.160Z,2.3
2023-05-09T07:56:59.984Z,2.5
2023-05-09T08:01:59.830Z,2.6
2023-05-09T08:06:59.651Z,2.1
2023-05-09T08:11:59.447Z,2.3
2023-05-09T08:16:59.361Z,1.6
2023-05-09T08:21:59.157Z,1.8
2023-05-09T08:26:59.060Z,2.1
2023-05-09T08:31:58.928Z,1.6
2023-05-09T08:36:58.904Z,3.2
2023-05-09T08:41:58.681Z,2.2
2023-05-09T08:51:58.508Z,2.0
2023-05-09T08:56:58.401Z,2.5
2023-05-09T09:01:58.419Z,2.7
2023-05-09T09:11:58.058Z,2.3
2023-05-09T09:22:00.302Z,2.8
2023-05-09T09:26:57.705Z,2.5
2023-05-09T09:31:59.581Z,3.1
2023-05-09T09:36:57.446Z,1.8
2023-05-09T09:41:57.616Z,1.2
2023-05-09T09:51:57.309Z,1.3
2023-05-09T09:56:57.060Z,0.9
2023-05-09T10:01:56.863Z,1.1
2023-05-09T10:06:56.704Z,1.5
2023-05-09T10:11:56.598Z,1.7
2023-05-09T10:16:56.629Z,1.5
2023-05-09T10:21:56.404Z,1.3
2023-05-09T10:31:56.532Z,1.8
2023-05-09T10:36:56.266Z,1.2
2023-05-09T10:41:56.215Z,1.6
2023-05-09T10:46:56.188Z,1.1
2023-05-09T10:51:56.110Z,0.5
2023-05-09T10:56:56.061Z,0.7
2023-05-09T11:01:56.038Z,0.6
2023-05-09T11:06:57.809Z,1.0
2023-05-09T11:11:55.999Z,0.8
2023-05-09T11:26:55.858Z,0.7
2023-05-09T11:31:55.838Z,0.6
2023-05-09T11:36:56.133Z,0.7
2023-05-09T11:46:55.739Z,0.5
2023-05-09T11:51:55.605Z,0.4
2023-05-09T11:56:55.610Z,0.6
2023-05-09T12:01:55.512Z,0.8
2023-05-09T12:11:55.600Z,0.7
2023-05-09T12:16:55.511Z,0.6
2023-05-09T12:21:55.582Z,0.5
2023-05-09T12:36:55.917Z,0.6
2023-05-09T12:42:01.548Z,0.5
2023-05-09T12:46:55.870Z,0.7
2023-05-09T12:51:55.998Z,0.6
2023-05-09T12:56:56.010Z,0.5
2023-05-09T13:01:56.101Z,0.6
2023-05-09T13:06:56.205Z,0.8
2023-05-09T13:11:56.235Z,0.6
2023-05-09T13:16:56.504Z,0.5
2023-05-09T13:26:56.780Z,0.6
2023-05-09T13:31:57.375Z,0.4
2023-05-09T13:36:57.334Z,0.6
2023-05-09T13:41:57.623Z,0.5
2023-05-09T13:51:58.025Z,0.8
2023-05-09T13:56:58.175Z,0.5
2023-05-09T14:01:58.443Z,0.6
2023-05-09T14:06:58.503Z,0.7
2023-05-09T14:16:58.723Z,0.4
2023-05-09T14:21:58.861Z,0.7
2023-05-09T14:26:59.016Z,0.5
2023-05-09T14:31:59.089Z,0.6
2023-05-09T14:36:59.152Z,0.4
2023-05-09T14:41:59.286Z,0.5
2023-05-09T15:07:00.492Z,0.3
2023-05-09T15:12:00.766Z,0.5
2023-05-09T15:17:01.074Z,0.7
2023-05-09T15:22:01.121Z,0.5
2023-05-09T15:27:01.252Z,0.7
2023-05-09T15:32:01.322Z,0.6
2023-05-09T15:37:01.429Z,0.8
2023-05-09T15:42:01.539Z,0.7
2023-05-09T15:47:01.870Z,0.6
2023-05-09T15:52:01.627Z,0.4
2023-05-09T15:57:04.219Z,0.8
2023-05-09T16:02:01.619Z,0.3
2023-05-09T16:07:03.585Z,0.6
2023-05-09T16:12:03.547Z,0.9
2023-05-09T16:17:02.585Z,0.6
2023-05-09T16:22:01.373Z,0.4
2023-05-09T16:27:03.303Z,0.5
2023-05-09T16:32:01.398Z,0.8
2023-05-09T16:37:01.100Z,0.6
2023-05-09T16:42:01.020Z,0.7
2023-05-09T16:47:01.089Z,0.8
2023-05-09T16:52:00.806Z,0.9
2023-05-09T16:57:02.724Z,0.6
2023-05-09T17:07:02.552Z,0.9
2023-05-09T17:12:00.201Z,0.5
2023-05-09T17:17:00.241Z,0.4
2023-05-09T17:21:59.940Z,0.5
2023-05-09T17:36:59.579Z,0.6
2023-05-09T17:41:59.404Z,0.7
2023-05-09T17:46:59.239Z,0.5
2023-05-09T17:56:58.874Z,0.7
2023-05-09T18:01:58.857Z,0.4
2023-05-09T18:06:58.763Z,0.5
2023-05-09T18:11:58.363Z,0.6
2023-05-09T18:26:57.756Z,0.9
2023-05-09T18:31:57.559Z,0.6
2023-05-09T18:36:59.625Z,0.5
2023-05-09T18:41:57.162Z,0.7
2023-05-09T18:46:56.980Z,0.8
2023-05-09T18:51:56.672Z,0.5
2023-05-09T19:01:58.345Z,0.6
2023-05-09T19:06:56.055Z,0.7
2023-05-09T19:11:56.185Z,0.4
2023-05-09T19:16:55.716Z,0.5
2023-05-09T19:21:55.629Z,0.7
2023-05-09T19:26:55.237Z,0.5
2023-05-09T19:31:55.075Z,1.1
2023-05-09T19:36:54.828Z,0.5
2023-05-09T19:41:54.653Z,0.8
2023-05-09T19:51:54.223Z,0.7
2023-05-09T19:56:54.026Z,0.9
2023-05-09T20:01:53.887Z,1.0
2023-05-09T20:11:53.398Z,0.7
2023-05-09T20:21:53.249Z,1.3
2023-05-09T20:26:52.694Z,0.6
2023-05-09T20:31:52.561Z,1.0
2023-05-09T20:36:52.247Z,0.9
2023-05-09T20:41:52.073Z,1.3
2023-05-09T20:46:51.768Z,1.1
2023-05-09T20:51:51.590Z,1.2
2023-05-09T20:56:51.386Z,0.8
2023-05-09T21:06:51.003Z,0.7
2023-05-09T21:11:50.773Z,1.1
2023-05-09T21:16:50.804Z,0.9
2023-05-09T21:21:50.299Z,1.0
2023-05-09T21:31:49.955Z,1.1
2023-05-09T21:36:49.547Z,1.4
2023-05-09T21:41:49.274Z,1.3
2023-05-09T21:46:49.134Z,1.2
2023-05-09T21:56:48.576Z,1.1
2023-05-09T22:01:48.366Z,1.9
2023-05-09T22:06:48.032Z,1.6
2023-05-09T22:11:47.754Z,1.4
2023-05-09T22:16:47.630Z,2.0
2023-05-09T22:21:47.227Z,1.8
2023-05-09T22:26:47.024Z,1.2
2023-05-09T22:36:46.607Z,2.2
2023-05-09T22:41:46.207Z,1.9
2023-05-09T22:46:45.978Z,2.6
2023-05-09T22:56:45.388Z,3.1
2023-05-09T23:01:45.155Z,2.5
2023-05-09T23:06:44.913Z,2.0
2023-05-09T23:11:44.448Z,4.1
2023-05-09T23:16:44.170Z,2.2
2023-05-09T23:21:43.884Z,2.9
2023-05-09T23:26:43.617Z,3.1
2023-05-09T23:31:43.341Z,2.8
2023-05-09T23:41:42.702Z,2.7
2023-05-09T23:46:42.525Z,2.4
2023-05-09T23:51:42.054Z,2.9
2023-05-09T23:56:41.797Z,2.8
